createdAt,value
2019-05-12T00:00:19.843Z,101521.70
2019-05-12T00:02:48.641Z,101523.53
2019-05-12T00:05:18.431Z,101524.87
2019-05-12T00:07:48.631Z,101525.05
2019-05-12T00:10:17.893Z,101530.40
2019-05-12T00:12:48.332Z,101531.40
2019-05-12T00:15:19.274Z,101531.08
2019-05-12T00:17:48.106Z,101537.95
2019-05-12T00:20:18.084Z,101543.62
2019-05-12T00:22:48.837Z,101544.78
2019-05-12T00:25:18.141Z,101541.44
2019-05-12T00:27:48.680Z,101550.14
2019-05-12T00:30:33.799Z,101546.47
2019-05-12T00:33:03.413Z,101550.14
2019-05-12T00:35:32.304Z,101556.83
2019-05-12T00:38:01.155Z,101554.49
2019-05-12T00:40:29.689Z,101557.48
2019-05-12T00:42:58.363Z,101556.50
2019-05-12T00:45:29.184Z,101559.19
2019-05-12T00:47:58.354Z,101560.17
2019-05-12T00:50:28.838Z,101563.20
2019-05-12T00:52:58.281Z,101567.03
2019-05-12T00:55:28.994Z,101566.20
2019-05-12T00:57:58.094Z,101575.55
2019-05-12T01:00:29.481Z,101576.55
2019-05-12T01:02:58.168Z,101581.72
2019-05-12T01:05:29.114Z,101587.75
2019-05-12T01:07:58.424Z,101593.75
2019-05-12T01:10:28.522Z,101592.92
2019-05-12T01:12:58.134Z,101601.24
2019-05-12T01:15:28.673Z,101596.70
2019-05-12T01:17:58.647Z,101603.91
2019-05-12T01:20:28.383Z,101601.58
2019-05-12T01:22:57.884Z,101597.88
2019-05-12T01:25:28.756Z,101608.91
2019-05-12T01:27:58.892Z,101610.59
2019-05-12T01:30:28.517Z,101613.25
2019-05-12T01:32:58.063Z,101613.43
2019-05-12T01:35:28.105Z,101619.62
2019-05-12T01:38:01.195Z,101624.59
2019-05-12T01:40:28.540Z,101627.27
2019-05-12T01:42:58.273Z,101627.80
2019-05-12T01:45:28.893Z,101628.95
2019-05-12T01:47:59.101Z,101633.98
2019-05-12T01:50:28.340Z,101639.83
2019-05-12T01:52:58.751Z,101645.67
2019-05-12T01:55:28.143Z,101651.67
2019-05-12T01:57:57.814Z,101657.83
2019-05-12T02:00:28.384Z,101665.34
2019-05-12T02:02:58.593Z,101670.55
2019-05-12T02:05:28.043Z,101664.70
2019-05-12T02:07:58.559Z,101670.88
2019-05-12T02:10:28.595Z,101676.73
2019-05-12T02:12:59.407Z,101682.38
2019-05-12T02:15:28.034Z,101678.91
2019-05-12T02:17:58.860Z,101687.08
2019-05-12T02:20:28.719Z,101688.07
2019-05-12T02:22:58.797Z,101688.41
2019-05-12T02:25:28.700Z,101696.43
2019-05-12T02:27:58.358Z,101687.92
2019-05-12T02:30:30.574Z,101698.08
2019-05-12T02:32:59.105Z,101696.40
2019-05-12T02:35:27.289Z,101704.91
2019-05-12T02:37:56.040Z,101699.41
2019-05-12T02:40:25.420Z,101700.06
2019-05-12T02:42:54.863Z,101697.92
2019-05-12T02:45:25.382Z,101700.10
2019-05-12T02:47:54.607Z,101706.09
2019-05-12T02:50:35.287Z,101707.09
2019-05-12T02:53:05.044Z,101707.58
2019-05-12T02:55:34.841Z,101710.25
2019-05-12T02:58:05.219Z,101711.25
2019-05-12T03:00:35.279Z,101711.44
2019-05-12T03:03:06.163Z,101721.41
2019-05-12T03:05:35.740Z,101721.44
2019-05-12T03:08:05.209Z,101729.80
2019-05-12T03:10:35.731Z,101732.63
2019-05-12T03:13:04.602Z,101731.10
2019-05-12T03:15:36.509Z,101737.24
2019-05-12T03:18:06.299Z,101740.76
2019-05-12T03:20:35.177Z,101744.66
2019-05-12T03:23:05.813Z,101753.46
2019-05-12T03:25:35.781Z,101760.45
2019-05-12T03:28:07.399Z,101757.48
2019-05-12T03:30:38.308Z,101759.84
2019-05-12T03:33:09.329Z,101763.66
2019-05-12T03:35:41.745Z,101765.49
2019-05-12T03:38:04.923Z,101764.64
2019-05-12T03:40:38.259Z,101772.16
2019-05-12T03:43:06.111Z,101770.48
2019-05-12T03:45:35.831Z,101770.49
2019-05-12T03:48:06.034Z,101774.49
2019-05-12T03:50:35.688Z,101781.52
2019-05-12T03:53:10.292Z,101782.16
2019-05-12T03:55:41.436Z,101788.70
2019-05-12T03:58:06.203Z,101792.11
2019-05-12T04:00:35.711Z,101798.83
2019-05-12T04:03:05.675Z,101796.16
2019-05-12T04:05:36.408Z,101797.98
2019-05-12T04:08:06.394Z,101799.98
2019-05-12T04:10:36.472Z,101803.99
2019-05-12T04:13:05.678Z,101816.98
2019-05-12T04:15:35.475Z,101822.38
2019-05-12T04:18:06.056Z,101826.70
2019-05-12T04:20:35.977Z,101830.16
2019-05-12T04:23:05.866Z,101840.24
2019-05-12T04:25:47.634Z,101841.88
2019-05-12T04:28:05.113Z,101852.71
2019-05-12T04:30:35.550Z,101860.93
2019-05-12T04:33:04.938Z,101863.03
2019-05-12T04:35:34.810Z,101857.39
2019-05-12T04:38:04.561Z,101866.07
2019-05-12T04:40:36.065Z,101865.41
2019-05-12T04:43:05.720Z,101874.93
2019-05-12T04:45:34.963Z,101878.30
2019-05-12T04:48:05.616Z,101883.27
2019-05-12T04:50:35.707Z,101886.61
2019-05-12T04:53:06.138Z,101886.88
2019-05-12T04:55:35.845Z,101887.30
2019-05-12T04:58:05.112Z,101897.30
2019-05-12T05:00:34.752Z,101909.98
2019-05-12T05:03:05.148Z,101913.64
2019-05-12T05:05:35.932Z,101918.36
2019-05-12T05:08:05.075Z,101925.09
2019-05-12T05:10:34.683Z,101926.28
2019-05-12T05:13:05.206Z,101931.02
2019-05-12T05:15:35.194Z,101930.95
2019-05-12T05:18:06.298Z,101945.23
2019-05-12T05:20:34.855Z,101950.70
2019-05-12T05:23:04.033Z,101949.39
2019-05-12T05:25:35.016Z,101957.38
2019-05-12T05:28:04.488Z,101965.77
2019-05-12T05:30:34.078Z,101976.95
2019-05-12T05:33:04.462Z,101984.33
2019-05-12T05:35:39.219Z,101984.47
2019-05-12T05:38:04.711Z,101992.28
2019-05-12T05:40:35.742Z,101986.85
2019-05-12T05:43:12.665Z,101996.35
2019-05-12T05:45:35.005Z,101999.52
2019-05-12T05:48:09.475Z,102006.92
2019-05-12T05:50:34.734Z,102015.34
2019-05-12T05:53:03.889Z,102015.83
2019-05-12T05:55:34.284Z,102016.94
2019-05-12T05:58:05.814Z,102021.53
2019-05-12T06:00:35.194Z,102023.04
2019-05-12T06:03:05.332Z,102025.45
2019-05-12T06:05:35.380Z,102033.75
2019-05-12T06:08:04.395Z,102033.47
2019-05-12T06:10:36.147Z,102045.02
2019-05-12T06:13:04.062Z,102045.58
2019-05-12T06:15:35.971Z,102043.43
2019-05-12T06:18:03.700Z,102048.62
2019-05-12T06:20:37.459Z,102048.59
2019-05-12T06:23:04.440Z,102050.87
2019-05-12T06:25:46.362Z,102055.69
2019-05-12T06:28:08.536Z,102059.34
2019-05-12T06:30:43.403Z,102054.87
2019-05-12T06:33:05.146Z,102065.09
2019-05-12T06:35:39.999Z,102063.33
2019-05-12T06:38:05.025Z,102062.17
2019-05-12T06:40:40.365Z,102066.87
2019-05-12T06:43:04.537Z,102066.02
2019-05-12T06:45:39.641Z,102076.27
2019-05-12T06:48:03.706Z,102079.77
2019-05-12T06:50:36.954Z,102081.63
2019-05-12T06:53:05.124Z,102085.98
2019-05-12T06:55:34.437Z,102082.82
2019-05-12T06:58:04.756Z,102090.03
2019-05-12T07:00:35.138Z,102089.91
2019-05-12T07:03:04.604Z,102085.42
2019-05-12T07:05:38.972Z,102082.70
2019-05-12T07:08:06.509Z,102087.95
2019-05-12T07:10:42.907Z,102092.38
2019-05-12T07:13:06.027Z,102092.66
2019-05-12T07:15:40.177Z,102091.41
2019-05-12T07:18:14.076Z,102099.90
2019-05-12T07:20:43.567Z,102101.05
2019-05-12T07:23:14.245Z,102099.72
2019-05-12T07:25:44.477Z,102105.99
2019-05-12T07:28:14.469Z,102111.66
2019-05-12T07:30:44.160Z,102114.22
2019-05-12T07:33:14.644Z,102114.61
2019-05-12T07:35:44.536Z,102121.52
2019-05-12T07:38:20.854Z,102129.45
2019-05-12T07:40:45.807Z,102134.53
2019-05-12T07:43:20.355Z,102128.22
2019-05-12T07:45:46.808Z,102129.13
2019-05-12T07:48:15.521Z,102126.55
2019-05-12T07:50:44.029Z,102128.44
2019-05-12T07:53:14.507Z,102132.52
2019-05-12T07:55:47.518Z,102134.39
2019-05-12T07:58:17.826Z,102131.76
2019-05-12T08:00:44.234Z,102131.64
2019-05-12T08:03:20.977Z,102138.02
2019-05-12T08:05:43.909Z,102141.95
2019-05-12T08:08:14.507Z,102143.95
2019-05-12T08:10:44.396Z,102154.69
2019-05-12T08:13:14.801Z,102151.44
2019-05-12T08:15:45.695Z,102151.95
2019-05-12T08:18:14.123Z,102148.17
2019-05-12T08:20:43.548Z,102150.17
2019-05-12T08:23:14.064Z,102152.97
2019-05-12T08:25:43.715Z,102142.77
2019-05-12T08:28:18.352Z,102157.77
2019-05-12T08:30:47.424Z,102141.51
2019-05-12T08:33:14.647Z,102149.63
2019-05-12T08:35:43.888Z,102142.35
2019-05-12T08:38:14.564Z,102145.39
2019-05-12T08:40:46.410Z,102154.10
2019-05-12T08:43:14.891Z,102154.59
2019-05-12T08:45:44.298Z,102155.77
2019-05-12T08:48:17.167Z,102158.09
2019-05-12T08:50:46.049Z,102163.98
2019-05-12T08:53:20.305Z,102176.86
2019-05-12T08:55:43.968Z,102179.19
2019-05-12T08:58:29.753Z,102166.88
2019-05-12T09:00:50.203Z,102179.61
2019-05-12T09:03:14.162Z,102186.56
2019-05-12T09:05:44.632Z,102176.48
2019-05-12T09:08:13.826Z,102180.57
2019-05-12T09:10:44.997Z,102189.95
2019-05-12T09:13:14.402Z,102195.48
2019-05-12T09:15:43.828Z,102189.08
2019-05-12T09:18:14.404Z,102192.47
2019-05-12T09:20:48.971Z,102191.48
2019-05-12T09:23:13.596Z,102198.07
2019-05-12T09:25:45.324Z,102194.62
2019-05-12T09:28:13.820Z,102205.70
2019-05-12T09:30:47.657Z,102203.34
2019-05-12T09:33:14.034Z,102200.27
2019-05-12T09:35:43.827Z,102206.58
2019-05-12T09:38:21.453Z,102205.35
2019-05-12T09:40:43.795Z,102197.97
2019-05-12T09:43:13.643Z,102200.13
2019-05-12T09:45:52.025Z,102207.15
2019-05-12T09:48:14.040Z,102203.88
2019-05-12T09:50:46.317Z,102203.90
2019-05-12T09:53:14.447Z,102209.48
2019-05-12T09:55:43.772Z,102211.52
2019-05-12T09:58:13.960Z,102216.83
2019-05-12T10:00:43.568Z,102213.39
2019-05-12T10:03:13.900Z,102213.96
2019-05-12T10:05:44.263Z,102215.61
2019-05-12T10:08:13.946Z,102219.11
2019-05-12T10:10:46.835Z,102208.99
2019-05-12T10:13:14.535Z,102217.63
2019-05-12T10:15:43.150Z,102215.13
2019-05-12T10:18:14.150Z,102206.03
2019-05-12T10:20:44.150Z,102215.98
2019-05-12T10:23:16.527Z,102210.64
2019-05-12T10:25:44.630Z,102214.95
2019-05-12T10:28:16.090Z,102215.23
2019-05-12T10:30:47.170Z,102214.34
2019-05-12T10:33:13.940Z,102203.38
2019-05-12T10:35:43.864Z,102212.20
2019-05-12T10:38:13.709Z,102223.33
2019-05-12T10:40:44.518Z,102231.32
2019-05-12T10:43:12.693Z,102229.45
2019-05-12T10:45:41.135Z,102219.36
2019-05-12T10:48:09.536Z,102216.48
2019-05-12T10:50:38.262Z,102224.33
2019-05-12T10:53:09.758Z,102225.94
2019-05-12T10:55:36.916Z,102232.64
2019-05-12T10:58:07.087Z,102229.93
2019-05-12T11:00:35.981Z,102230.44
2019-05-12T11:03:10.755Z,102236.66
2019-05-12T11:05:34.824Z,102232.78
2019-05-12T11:08:10.959Z,102223.94
2019-05-12T11:10:33.676Z,102245.92
2019-05-12T11:13:08.527Z,102239.70
2019-05-12T11:15:34.333Z,102238.95
2019-05-12T11:18:04.983Z,102250.53
2019-05-12T11:20:34.355Z,102255.31
2019-05-12T11:23:03.698Z,102242.20
2019-05-12T11:25:34.100Z,102248.02
2019-05-12T11:28:03.687Z,102240.35
2019-05-12T11:30:34.637Z,102248.28
2019-05-12T11:33:04.365Z,102247.92
2019-05-12T11:35:33.548Z,102242.19
2019-05-12T11:38:04.468Z,102241.27
2019-05-12T11:40:34.672Z,102251.77
2019-05-12T11:43:04.290Z,102255.11
2019-05-12T11:45:34.100Z,102252.40
2019-05-12T11:48:05.891Z,102253.53
2019-05-12T11:50:33.075Z,102258.41
2019-05-12T11:53:03.969Z,102255.68
2019-05-12T11:55:32.548Z,102256.39
2019-05-12T11:58:06.782Z,102254.26
2019-05-12T12:00:33.833Z,102244.85
2019-05-12T12:03:03.790Z,102248.37
2019-05-12T12:05:34.034Z,102257.78
2019-05-12T12:08:03.952Z,102255.62
2019-05-12T12:10:37.472Z,102262.58
2019-05-12T12:13:03.665Z,102262.77
2019-05-12T12:15:34.525Z,102260.28
2019-05-12T12:18:03.896Z,102251.94
2019-05-12T12:20:33.796Z,102263.09
2019-05-12T12:23:06.475Z,102270.91
2019-05-12T12:25:34.251Z,102268.16
2019-05-12T12:28:04.437Z,102270.26
2019-05-12T12:30:33.929Z,102266.75
2019-05-12T12:33:04.148Z,102263.06
2019-05-12T12:35:34.624Z,102271.61
2019-05-12T12:38:03.858Z,102267.07
2019-05-12T12:40:32.691Z,102277.86
2019-05-12T12:43:03.413Z,102275.68
2019-05-12T12:45:36.845Z,102272.80
2019-05-12T12:48:03.533Z,102278.09
2019-05-12T12:50:34.207Z,102277.10
2019-05-12T12:53:02.607Z,102277.48
2019-05-12T12:55:31.027Z,102282.95
2019-05-12T12:57:59.423Z,102291.87
2019-05-12T13:00:32.082Z,102293.25
2019-05-12T13:02:58.186Z,102289.97
2019-05-12T13:05:26.696Z,102291.77
2019-05-12T13:07:55.248Z,102286.55
2019-05-12T13:10:24.826Z,102289.91
2019-05-12T13:12:56.611Z,102292.50
2019-05-12T13:15:23.768Z,102299.01
2019-05-12T13:17:52.215Z,102313.88
2019-05-12T13:20:20.670Z,102308.07
2019-05-12T13:22:49.087Z,102319.09
2019-05-12T13:25:19.124Z,102315.59
2019-05-12T13:27:47.494Z,102316.66
2019-05-12T13:30:21.238Z,102317.58
2019-05-12T13:32:47.146Z,102308.96
2019-05-12T13:35:19.857Z,102302.23
2019-05-12T13:37:50.415Z,102321.43
2019-05-12T13:40:16.054Z,102312.19
2019-05-12T13:42:44.449Z,102321.87
2019-05-12T13:45:16.178Z,102322.16
2019-05-12T13:47:44.093Z,102327.06
2019-05-12T13:50:21.276Z,102326.42
2019-05-12T13:52:42.866Z,102336.11
2019-05-12T13:55:13.470Z,102341.05
2019-05-12T13:57:46.703Z,102331.13
2019-05-12T14:00:14.118Z,102341.98
2019-05-12T14:02:44.150Z,102338.78
2019-05-12T14:05:15.051Z,102339.08
2019-05-12T14:07:44.012Z,102351.18
2019-05-12T14:10:13.998Z,102343.94
2019-05-12T14:12:43.958Z,102340.48
2019-05-12T14:15:14.229Z,102349.63
2019-05-12T14:17:43.627Z,102355.30
2019-05-12T14:20:15.831Z,102366.17
2019-05-12T14:22:44.812Z,102362.88
2019-05-12T14:25:15.247Z,102364.63
2019-05-12T14:27:44.352Z,102363.58
2019-05-12T14:30:14.544Z,102364.73
2019-05-12T14:32:44.007Z,102366.23
2019-05-12T14:35:12.688Z,102373.92
2019-05-12T14:37:45.733Z,102379.72
2019-05-12T14:40:13.405Z,102379.72
2019-05-12T14:42:44.254Z,102369.54
2019-05-12T14:45:13.860Z,102388.16
2019-05-12T14:47:43.656Z,102378.48
2019-05-12T14:50:14.152Z,102385.30
2019-05-12T14:52:43.949Z,102382.96
2019-05-12T14:55:13.840Z,102387.52
2019-05-12T14:57:42.740Z,102390.32
2019-05-12T15:00:17.311Z,102390.22
2019-05-12T15:02:43.688Z,102391.37
2019-05-12T15:05:14.091Z,102392.55
2019-05-12T15:07:51.158Z,102397.16
2019-05-12T15:10:14.359Z,102397.62
2019-05-12T15:12:44.161Z,102410.89
2019-05-12T15:15:15.621Z,102411.52
2019-05-12T15:17:44.494Z,102410.20
2019-05-12T15:20:13.904Z,102408.66
2019-05-12T15:22:51.290Z,102411.50
2019-05-12T15:25:14.511Z,102412.78
2019-05-12T15:27:47.655Z,102414.76
2019-05-12T15:30:22.303Z,102414.60
2019-05-12T15:32:43.517Z,102416.87
2019-05-12T15:35:13.693Z,102420.73
2019-05-12T15:37:43.703Z,102431.89
2019-05-12T15:40:14.506Z,102425.67
2019-05-12T15:42:44.954Z,102423.99
2019-05-12T15:45:16.647Z,102428.19
2019-05-12T15:47:44.569Z,102434.11
2019-05-12T15:50:14.636Z,102437.13
2019-05-12T15:52:45.666Z,102432.98
2019-05-12T15:55:13.853Z,102439.83
2019-05-12T15:57:43.983Z,102442.05
2019-05-12T16:00:13.775Z,102445.98
2019-05-12T16:02:44.272Z,102443.39
2019-05-12T16:05:14.624Z,102452.92
2019-05-12T16:07:44.208Z,102455.06
2019-05-12T16:10:14.529Z,102458.45
2019-05-12T16:12:43.628Z,102459.36
2019-05-12T16:15:17.353Z,102453.77
2019-05-12T16:17:43.992Z,102462.78
2019-05-12T16:20:14.266Z,102453.17
2019-05-12T16:22:45.250Z,102469.08
2019-05-12T16:25:15.163Z,102465.49
2019-05-12T16:27:44.391Z,102472.17
2019-05-12T16:30:14.124Z,102473.09
2019-05-12T16:32:47.296Z,102478.36
2019-05-12T16:35:14.496Z,102474.02
2019-05-12T16:37:44.183Z,102477.22
2019-05-12T16:40:13.837Z,102481.37
2019-05-12T16:42:48.173Z,102479.94
2019-05-12T16:45:14.586Z,102487.64
2019-05-12T16:47:44.781Z,102483.41
2019-05-12T16:50:16.109Z,102490.30
2019-05-12T16:52:45.349Z,102494.13
2019-05-12T16:55:15.024Z,102499.25
2019-05-12T16:57:51.624Z,102503.98
2019-05-12T17:00:14.759Z,102503.11
2019-05-12T17:02:52.100Z,102512.56
2019-05-12T17:05:19.769Z,102515.97
2019-05-12T17:07:44.341Z,102521.91
2019-05-12T17:10:16.665Z,102519.21
2019-05-12T17:12:44.448Z,102521.87
2019-05-12T17:15:14.885Z,102521.17
2019-05-12T17:17:44.668Z,102531.01
2019-05-12T17:20:15.052Z,102526.75
2019-05-12T17:22:53.703Z,102529.28
2019-05-12T17:25:15.594Z,102529.67
2019-05-12T17:27:44.832Z,102535.95
2019-05-12T17:30:14.679Z,102535.80
2019-05-12T17:32:56.998Z,102532.17
2019-05-12T17:35:14.597Z,102546.38
2019-05-12T17:37:43.628Z,102541.82
2019-05-12T17:40:20.149Z,102548.94
2019-05-12T17:42:44.206Z,102552.17
2019-05-12T17:45:15.841Z,102553.55
2019-05-12T17:47:44.487Z,102557.97
2019-05-12T17:50:13.795Z,102565.58
2019-05-12T17:52:44.883Z,102565.58
2019-05-12T17:55:14.622Z,102565.41
2019-05-12T17:57:44.218Z,102573.16
2019-05-12T18:00:13.936Z,102570.62
2019-05-12T18:02:43.944Z,102581.91
2019-05-12T18:05:15.548Z,102584.96
2019-05-12T18:07:44.872Z,102591.02
2019-05-12T18:10:13.709Z,102583.96
2019-05-12T18:12:45.225Z,102592.55
2019-05-12T18:15:15.105Z,102597.75
2019-05-12T18:17:45.231Z,102599.79
2019-05-12T18:20:14.349Z,102603.52
2019-05-12T18:22:45.200Z,102608.23
2019-05-12T18:25:14.623Z,102612.97
2019-05-12T18:27:50.255Z,102606.22
2019-05-12T18:30:18.403Z,102627.43
2019-05-12T18:32:44.612Z,102628.80
2019-05-12T18:35:13.784Z,102629.61
2019-05-12T18:37:42.401Z,102640.22
2019-05-12T18:40:10.884Z,102642.23
2019-05-12T18:42:39.248Z,102642.07
2019-05-12T18:45:14.869Z,102649.63
2019-05-12T18:47:38.826Z,102651.31
2019-05-12T18:50:08.002Z,102647.92
2019-05-12T18:52:42.906Z,102655.97
2019-05-12T18:55:07.539Z,102661.36
2019-05-12T18:57:39.390Z,102669.06
2019-05-12T19:00:09.362Z,102670.53
2019-05-12T19:02:37.848Z,102678.41
2019-05-12T19:05:06.980Z,102687.14
2019-05-12T19:07:39.736Z,102685.80
2019-05-12T19:10:07.447Z,102682.41
2019-05-12T19:12:36.469Z,102689.48
2019-05-12T19:15:10.181Z,102696.02
2019-05-12T19:17:37.318Z,102698.20
2019-05-12T19:20:09.301Z,102706.58
2019-05-12T19:22:39.381Z,102711.30
2019-05-12T19:25:14.564Z,102712.30
2019-05-12T19:27:45.741Z,102722.87
2019-05-12T19:30:13.909Z,102724.55
2019-05-12T19:32:45.065Z,102724.55
2019-05-12T19:35:17.889Z,102730.72
2019-05-12T19:37:45.341Z,102734.41
2019-05-12T19:40:17.424Z,102738.45
2019-05-12T19:42:44.510Z,102738.09
2019-05-12T19:45:19.595Z,102742.18
2019-05-12T19:47:44.308Z,102745.81
2019-05-12T19:50:17.604Z,102747.46
2019-05-12T19:52:43.257Z,102749.48
2019-05-12T19:55:13.793Z,102750.44
2019-05-12T19:57:44.225Z,102757.15
2019-05-12T20:00:13.834Z,102751.56
2019-05-12T20:02:42.595Z,102761.42
2019-05-12T20:05:16.730Z,102762.96
2019-05-12T20:07:43.808Z,102767.48
2019-05-12T20:10:13.771Z,102771.02
2019-05-12T20:12:43.609Z,102771.01
2019-05-12T20:15:15.064Z,102772.65
2019-05-12T20:17:44.679Z,102773.30
2019-05-12T20:20:13.785Z,102772.44
2019-05-12T20:22:44.141Z,102778.80
2019-05-12T20:25:14.611Z,102780.42
2019-05-12T20:27:44.582Z,102781.77
2019-05-12T20:30:19.417Z,102788.83
2019-05-12T20:32:43.902Z,102789.80
2019-05-12T20:35:14.616Z,102790.95
2019-05-12T20:37:44.165Z,102800.98
2019-05-12T20:40:14.779Z,102799.56
2019-05-12T20:43:04.796Z,102803.05
2019-05-12T20:45:14.145Z,102801.84
2019-05-12T20:47:44.922Z,102806.02
2019-05-12T20:50:14.654Z,102805.38
2019-05-12T20:52:46.260Z,102805.00
2019-05-12T20:55:14.589Z,102811.89
2019-05-12T20:57:51.831Z,102805.67
2019-05-12T21:00:14.655Z,102808.97
2019-05-12T21:02:44.240Z,102814.63
2019-05-12T21:05:19.677Z,102809.59
2019-05-12T21:07:44.604Z,102817.64
2019-05-12T21:10:14.772Z,102813.55
2019-05-12T21:12:46.599Z,102817.17
2019-05-12T21:15:20.205Z,102825.05
2019-05-12T21:17:52.183Z,102820.48
2019-05-12T21:20:16.799Z,102822.47
2019-05-12T21:22:45.352Z,102818.41
2019-05-12T21:25:13.876Z,102831.73
2019-05-12T21:27:47.361Z,102830.04
2019-05-12T21:30:15.068Z,102831.59
2019-05-12T21:32:48.709Z,102838.73
2019-05-12T21:35:19.366Z,102837.98
2019-05-12T21:37:48.396Z,102838.62
2019-05-12T21:40:16.119Z,102846.53
2019-05-12T21:42:44.930Z,102843.11
2019-05-12T21:45:14.522Z,102847.83
2019-05-12T21:47:44.464Z,102845.82
2019-05-12T21:50:13.993Z,102847.12
2019-05-12T21:52:44.706Z,102851.06
2019-05-12T21:55:21.215Z,102853.14
2019-05-12T21:57:43.978Z,102850.95
2019-05-12T22:00:34.646Z,102851.62
2019-05-12T22:03:08.223Z,102864.18
2019-05-12T22:05:48.225Z,102856.98
2019-05-12T22:08:06.490Z,102857.34
2019-05-12T22:10:35.168Z,102864.67
2019-05-12T22:13:07.375Z,102866.51
2019-05-12T22:15:34.298Z,102865.30
2019-05-12T22:18:04.846Z,102864.77
2019-05-12T22:20:35.042Z,102869.20
2019-05-12T22:23:11.735Z,102868.70
2019-05-12T22:25:34.738Z,102867.81
2019-05-12T22:28:07.366Z,102868.17
2019-05-12T22:30:35.020Z,102871.70
2019-05-12T22:33:09.104Z,102868.90
2019-05-12T22:35:35.139Z,102877.30
2019-05-12T22:38:09.256Z,102875.59
2019-05-12T22:40:33.744Z,102881.67
2019-05-12T22:43:04.506Z,102879.27
2019-05-12T22:45:36.020Z,102878.42
2019-05-12T22:48:03.978Z,102883.15
2019-05-12T22:50:35.187Z,102875.84
2019-05-12T22:53:04.385Z,102880.16
2019-05-12T22:55:35.968Z,102876.91
2019-05-12T22:58:03.879Z,102873.33
2019-05-12T23:00:34.285Z,102874.31
2019-05-12T23:03:09.294Z,102876.72
2019-05-12T23:05:33.323Z,102876.50
2019-05-12T23:08:06.129Z,102876.44
2019-05-12T23:10:32.233Z,102878.41
2019-05-12T23:13:02.225Z,102884.75
2019-05-12T23:15:33.289Z,102887.37
2019-05-12T23:18:04.021Z,102885.90
2019-05-12T23:20:33.305Z,102894.07
2019-05-12T23:23:03.879Z,102899.28
2019-05-12T23:25:33.616Z,102897.72
2019-05-12T23:28:08.301Z,102893.77
2019-05-12T23:30:32.787Z,102897.43
2019-05-12T23:33:03.525Z,102906.80
2019-05-12T23:35:37.300Z,102906.31
2019-05-12T23:38:04.209Z,102906.29
2019-05-12T23:40:31.522Z,102905.61
2019-05-12T23:42:59.893Z,102908.77
2019-05-12T23:45:28.353Z,102906.48
2019-05-12T23:47:56.781Z,102910.15
2019-05-12T23:50:25.189Z,102908.39
2019-05-12T23:52:54.166Z,102912.05
2019-05-12T23:55:24.118Z,102908.31
2019-05-12T23:57:53.761Z,102911.25
